createdAt,value
2018-08-03T00:00:26.609Z,0
2018-08-03T00:01:26.873Z,0
2018-08-03T00:02:27.111Z,0
2018-08-03T00:03:27.117Z,0
2018-08-03T00:04:26.850Z,0
2018-08-03T00:05:27.117Z,0
2018-08-03T00:06:26.855Z,0
2018-08-03T00:07:27.102Z,0
2018-08-03T00:08:26.847Z,0
2018-08-03T00:09:26.845Z,0
2018-08-03T00:10:26.846Z,0
2018-08-03T00:11:26.844Z,0
2018-08-03T00:12:27.106Z,0
2018-08-03T00:13:27.091Z,0
2018-08-03T00:14:27.139Z,0
2018-08-03T00:15:27.098Z,0
2018-08-03T00:16:26.836Z,0
2018-08-03T00:17:26.587Z,0
2018-08-03T00:18:27.089Z,0
2018-08-03T00:19:27.085Z,0
2018-08-03T00:20:27.090Z,0
2018-08-03T00:21:27.094Z,0
2018-08-03T00:22:27.089Z,0
2018-08-03T00:23:26.829Z,0
2018-08-03T00:24:27.090Z,0
2018-08-03T00:25:26.832Z,0
2018-08-03T00:26:26.831Z,0
2018-08-03T00:27:27.084Z,0
2018-08-03T00:28:27.080Z,0
2018-08-03T00:29:27.075Z,0
2018-08-03T00:30:26.567Z,0
2018-08-03T00:31:27.071Z,0
2018-08-03T00:32:27.072Z,0
2018-08-03T00:33:26.564Z,0
2018-08-03T00:34:26.818Z,0
2018-08-03T00:35:26.562Z,0
2018-08-03T00:36:26.561Z,0
2018-08-03T00:37:27.062Z,0
2018-08-03T00:38:27.067Z,0
2018-08-03T00:39:27.062Z,0
2018-08-03T00:40:26.811Z,0
2018-08-03T00:41:27.064Z,0
2018-08-03T00:42:26.803Z,0
2018-08-03T00:43:26.802Z,0
2018-08-03T00:44:26.800Z,0
2018-08-03T00:45:27.050Z,0
2018-08-03T00:46:27.056Z,0
2018-08-03T00:47:27.046Z,0
2018-08-03T00:48:26.545Z,0
2018-08-03T00:49:26.795Z,0
2018-08-03T00:50:26.790Z,0
2018-08-03T00:52:27.045Z,0
2018-08-03T00:53:27.038Z,0
2018-08-03T00:54:26.286Z,0
2018-08-03T00:55:27.042Z,0
2018-08-03T00:56:27.035Z,0
2018-08-03T00:57:27.034Z,0
2018-08-03T00:58:27.028Z,0
2018-08-03T00:59:26.775Z,0
2018-08-03T01:00:26.776Z,0
2018-08-03T01:01:26.801Z,0
2018-08-03T01:02:26.775Z,0
2018-08-03T01:03:27.026Z,0
2018-08-03T01:04:26.519Z,0
2018-08-03T01:05:27.024Z,0
2018-08-03T01:06:26.770Z,0
2018-08-03T01:07:26.511Z,0
2018-08-03T01:08:27.015Z,0
2018-08-03T01:09:26.768Z,0
2018-08-03T01:10:27.008Z,0
2018-08-03T01:11:26.506Z,0
2018-08-03T01:12:26.755Z,0
2018-08-03T01:13:26.511Z,0
2018-08-03T01:14:27.002Z,0
2018-08-03T01:15:27.004Z,0
2018-08-03T01:16:27.006Z,0
2018-08-03T01:17:26.749Z,0
2018-08-03T01:18:26.998Z,0
2018-08-03T01:19:26.995Z,0
2018-08-03T01:20:26.994Z,0
2018-08-03T01:21:26.992Z,0
2018-08-03T01:22:26.989Z,0
2018-08-03T01:23:26.743Z,0
2018-08-03T01:24:26.751Z,0
2018-08-03T01:25:26.731Z,0
2018-08-03T01:26:26.488Z,0
2018-08-03T01:27:26.730Z,0
2018-08-03T01:28:26.987Z,0
2018-08-03T01:29:26.770Z,0
2018-08-03T01:30:26.721Z,0
2018-08-03T01:31:26.976Z,0
2018-08-03T01:32:26.731Z,0
2018-08-03T01:33:26.722Z,0
2018-08-03T01:34:26.721Z,0
2018-08-03T01:35:26.716Z,0
2018-08-03T01:36:26.965Z,0
2018-08-03T01:37:26.715Z,0
2018-08-03T01:38:26.459Z,0
2018-08-03T01:39:26.964Z,0
2018-08-03T01:40:26.955Z,0
2018-08-03T01:41:26.970Z,0
2018-08-03T01:42:26.743Z,0
2018-08-03T01:43:26.201Z,0
2018-08-03T01:44:26.955Z,0
2018-08-03T01:45:26.952Z,0
2018-08-03T01:46:26.442Z,0
2018-08-03T01:47:26.958Z,0
2018-08-03T01:48:26.449Z,0
2018-08-03T01:49:26.687Z,0
2018-08-03T01:50:26.691Z,0
2018-08-03T01:51:26.686Z,0
2018-08-03T01:52:26.694Z,0
2018-08-03T01:53:26.934Z,0
2018-08-03T01:54:26.682Z,0
2018-08-03T01:55:26.926Z,0
2018-08-03T01:56:26.678Z,0
2018-08-03T01:57:26.432Z,0
2018-08-03T01:58:26.676Z,0
2018-08-03T01:59:26.674Z,0
2018-08-03T02:00:26.421Z,0
2018-08-03T02:01:26.425Z,0
2018-08-03T02:02:26.416Z,0
2018-08-03T02:03:26.936Z,0
2018-08-03T02:04:26.163Z,0
2018-08-03T02:05:26.663Z,0
2018-08-03T02:06:26.663Z,0
2018-08-03T02:07:26.911Z,0
2018-08-03T02:08:26.908Z,0
2018-08-03T02:09:26.657Z,0
2018-08-03T02:10:26.660Z,0
2018-08-03T02:11:26.915Z,0
2018-08-03T02:12:26.653Z,0
2018-08-03T02:13:26.147Z,0
2018-08-03T02:14:26.653Z,0
2018-08-03T02:15:26.684Z,0
2018-08-03T02:16:26.895Z,0
2018-08-03T02:17:26.889Z,0
2018-08-03T02:18:26.889Z,0
2018-08-03T02:19:26.888Z,0
2018-08-03T02:20:26.130Z,0
2018-08-03T02:21:26.637Z,0
2018-08-03T02:22:26.385Z,0
2018-08-03T02:23:26.882Z,0
2018-08-03T02:24:26.881Z,0
2018-08-03T02:25:26.877Z,0
2018-08-03T02:26:26.878Z,0
2018-08-03T02:27:26.898Z,0
2018-08-03T02:28:26.629Z,0
2018-08-03T02:29:26.873Z,0
2018-08-03T02:30:26.633Z,0
2018-08-03T02:31:26.629Z,0
2018-08-03T02:32:26.645Z,0
2018-08-03T02:33:26.861Z,0
2018-08-03T02:34:26.616Z,0
2018-08-03T02:35:26.862Z,0
2018-08-03T02:36:26.886Z,0
2018-08-03T02:37:26.610Z,0
2018-08-03T02:38:26.602Z,0
2018-08-03T02:39:26.880Z,0
2018-08-03T02:40:26.854Z,0
2018-08-03T02:41:26.606Z,0
2018-08-03T02:42:26.853Z,0
2018-08-03T02:43:26.863Z,0
2018-08-03T02:44:26.843Z,0
2018-08-03T02:45:26.841Z,0
2018-08-03T02:46:26.840Z,0
2018-08-03T02:47:26.837Z,0
2018-08-03T02:48:26.853Z,0
2018-08-03T02:49:26.584Z,0
2018-08-03T02:50:26.580Z,0
2018-08-03T02:51:26.838Z,0
2018-08-03T02:52:26.835Z,0
2018-08-03T02:53:26.825Z,0
2018-08-03T02:54:26.828Z,0
2018-08-03T02:55:26.830Z,0
2018-08-03T02:56:26.820Z,0
2018-08-03T02:57:26.818Z,0
2018-08-03T02:58:26.313Z,0
2018-08-03T02:59:26.816Z,0
2018-08-03T03:00:26.814Z,0
2018-08-03T03:01:26.814Z,0
2018-08-03T03:02:26.816Z,0
2018-08-03T03:03:26.556Z,0
2018-08-03T03:04:26.299Z,0
2018-08-03T03:05:26.802Z,0
2018-08-03T03:06:26.798Z,0
2018-08-03T03:07:27.206Z,0
2018-08-03T03:08:26.545Z,0
2018-08-03T03:09:26.541Z,0
2018-08-03T03:10:26.540Z,0
2018-08-03T03:11:26.832Z,0
2018-08-03T03:12:26.789Z,0
2018-08-03T03:13:26.788Z,0
2018-08-03T03:14:26.822Z,0
2018-08-03T03:15:26.787Z,0
2018-08-03T03:16:26.540Z,0
2018-08-03T03:17:26.814Z,0
2018-08-03T03:18:26.522Z,0
2018-08-03T03:19:27.063Z,0
2018-08-03T03:20:26.270Z,0
2018-08-03T03:21:26.774Z,0
2018-08-03T03:22:26.769Z,5
2018-08-03T03:23:26.778Z,5
2018-08-03T03:24:26.269Z,5
2018-08-03T03:25:26.760Z,5
2018-08-03T03:26:26.508Z,5
2018-08-03T03:27:26.309Z,5
2018-08-03T03:28:26.506Z,5
2018-08-03T03:29:26.502Z,10
2018-08-03T03:30:26.502Z,10
2018-08-03T03:31:26.262Z,10
2018-08-03T03:32:26.503Z,10
2018-08-03T03:33:27.041Z,10
2018-08-03T03:34:26.498Z,10
2018-08-03T03:35:26.762Z,15
2018-08-03T03:36:26.493Z,15
2018-08-03T03:37:26.759Z,15
2018-08-03T03:38:26.748Z,20
2018-08-03T03:39:26.735Z,20
2018-08-03T03:40:26.731Z,20
2018-08-03T03:41:26.731Z,20
2018-08-03T03:42:26.739Z,25
2018-08-03T03:43:26.728Z,25
2018-08-03T03:44:26.477Z,25
2018-08-03T03:45:26.774Z,30
2018-08-03T03:46:26.477Z,30
2018-08-03T03:47:26.719Z,30
2018-08-03T03:48:26.221Z,35
2018-08-03T03:49:26.718Z,35
2018-08-03T03:50:26.721Z,35
2018-08-03T03:51:26.715Z,35
2018-08-03T03:52:26.460Z,35
2018-08-03T03:53:26.708Z,35
2018-08-03T03:54:26.705Z,40
2018-08-03T03:55:26.718Z,40
2018-08-03T03:56:26.701Z,45
2018-08-03T03:57:26.708Z,45
2018-08-03T03:58:26.194Z,45
2018-08-03T03:59:26.352Z,50
2018-08-03T04:00:26.718Z,50
2018-08-03T04:01:26.693Z,50
2018-08-03T04:02:26.701Z,55
2018-08-03T04:03:26.190Z,55
2018-08-03T04:04:26.691Z,55
2018-08-03T04:05:26.689Z,60
2018-08-03T04:06:26.694Z,60
2018-08-03T04:07:26.689Z,60
2018-08-03T04:08:26.430Z,65
2018-08-03T04:09:26.428Z,60
2018-08-03T04:10:26.184Z,65
2018-08-03T04:11:26.677Z,60
2018-08-03T04:12:27.191Z,70
2018-08-03T04:13:26.678Z,70
2018-08-03T04:14:26.674Z,70
2018-08-03T04:15:26.678Z,70
2018-08-03T04:16:26.679Z,70
2018-08-03T04:17:26.721Z,65
2018-08-03T04:18:26.685Z,75
2018-08-03T04:19:26.415Z,80
2018-08-03T04:20:26.666Z,85
2018-08-03T04:21:26.410Z,85
2018-08-03T04:22:26.669Z,85
2018-08-03T04:23:26.662Z,85
2018-08-03T04:24:26.659Z,85
2018-08-03T04:25:26.469Z,85
2018-08-03T04:26:26.659Z,85
2018-08-03T04:27:26.409Z,80
2018-08-03T04:28:26.662Z,80
2018-08-03T04:29:26.416Z,80
2018-08-03T04:30:26.682Z,80
2018-08-03T04:31:26.669Z,80
2018-08-03T04:32:26.406Z,80
2018-08-03T04:33:26.406Z,85
2018-08-03T04:34:26.147Z,85
2018-08-03T04:35:26.696Z,85
2018-08-03T04:36:26.664Z,85
2018-08-03T04:37:26.652Z,90
2018-08-03T04:38:26.730Z,95
2018-08-03T04:39:26.677Z,100
2018-08-03T04:40:26.779Z,105
2018-08-03T04:41:26.660Z,110
2018-08-03T04:42:27.189Z,125
2018-08-03T04:43:26.144Z,145
2018-08-03T04:44:26.140Z,150
2018-08-03T04:45:26.649Z,150
2018-08-03T04:46:26.652Z,145
2018-08-03T04:47:26.651Z,140
2018-08-03T04:48:26.394Z,130
2018-08-03T04:49:26.646Z,140
2018-08-03T04:50:26.163Z,140
2018-08-03T04:51:26.646Z,150
2018-08-03T04:52:26.640Z,160
2018-08-03T04:53:26.653Z,160
2018-08-03T04:54:26.170Z,155
2018-08-03T04:55:26.140Z,155
2018-08-03T04:56:26.143Z,150
2018-08-03T04:57:26.641Z,145
2018-08-03T04:58:26.392Z,140
2018-08-03T04:59:26.655Z,140
2018-08-03T05:00:26.660Z,150
2018-08-03T05:01:26.396Z,130
2018-08-03T05:02:26.648Z,115
2018-08-03T05:03:26.405Z,110
2018-08-03T05:04:26.673Z,110
2018-08-03T05:05:26.664Z,115
2018-08-03T05:06:26.397Z,125
2018-08-03T05:07:26.658Z,125
2018-08-03T05:08:26.675Z,135
2018-08-03T05:09:26.653Z,135
2018-08-03T05:10:26.655Z,145
2018-08-03T05:11:26.656Z,150
2018-08-03T05:12:26.157Z,155
2018-08-03T05:13:26.662Z,155
2018-08-03T05:14:26.662Z,160
2018-08-03T05:15:26.849Z,160
2018-08-03T05:16:26.414Z,165
2018-08-03T05:17:26.416Z,170
2018-08-03T05:18:26.665Z,185
2018-08-03T05:19:26.164Z,185
2018-08-03T05:20:26.666Z,310
2018-08-03T05:21:26.692Z,340
2018-08-03T05:22:26.673Z,340
2018-08-03T05:23:26.670Z,335
2018-08-03T05:24:27.050Z,340
2018-08-03T05:25:26.696Z,320
2018-08-03T05:26:26.677Z,280
2018-08-03T05:27:26.682Z,210
2018-08-03T05:28:26.685Z,200
2018-08-03T05:29:26.712Z,205
2018-08-03T05:30:27.114Z,205
2018-08-03T05:31:26.453Z,205
2018-08-03T05:32:26.443Z,210
2018-08-03T05:33:26.693Z,215
2018-08-03T05:34:26.699Z,225
2018-08-03T05:35:26.926Z,235
2018-08-03T05:36:26.445Z,240
2018-08-03T05:37:26.201Z,240
2018-08-03T05:38:26.710Z,240
2018-08-03T05:39:26.453Z,235
2018-08-03T05:40:26.732Z,230
2018-08-03T05:41:26.479Z,225
2018-08-03T05:42:26.593Z,220
2018-08-03T05:43:26.476Z,220
2018-08-03T05:44:26.740Z,230
2018-08-03T05:45:26.576Z,240
2018-08-03T05:46:26.478Z,245
2018-08-03T05:47:26.778Z,250
2018-08-03T05:48:26.748Z,255
2018-08-03T05:49:26.746Z,265
2018-08-03T05:50:26.724Z,270
2018-08-03T05:51:26.744Z,270
2018-08-03T05:52:26.753Z,275
2018-08-03T05:53:26.750Z,275
2018-08-03T05:54:26.244Z,280
2018-08-03T05:55:26.800Z,280
2018-08-03T05:56:26.751Z,285
2018-08-03T05:57:26.502Z,295
2018-08-03T05:58:26.793Z,305
2018-08-03T05:59:26.253Z,320
2018-08-03T06:00:26.258Z,330
2018-08-03T06:01:26.764Z,340
2018-08-03T06:02:26.781Z,365
2018-08-03T06:03:26.781Z,375
2018-08-03T06:04:26.524Z,390
2018-08-03T06:05:26.526Z,420
2018-08-03T06:06:26.786Z,465
2018-08-03T06:07:26.785Z,445
2018-08-03T06:08:26.434Z,420
2018-08-03T06:09:26.794Z,485
2018-08-03T06:10:26.786Z,570
2018-08-03T06:11:26.801Z,530
2018-08-03T06:12:26.291Z,500
2018-08-03T06:13:26.799Z,525
2018-08-03T06:14:26.543Z,430
2018-08-03T06:15:26.551Z,430
2018-08-03T06:16:26.307Z,430
2018-08-03T06:17:26.819Z,480
2018-08-03T06:18:26.307Z,510
2018-08-03T06:19:26.811Z,435
2018-08-03T06:20:26.817Z,470
2018-08-03T06:21:26.820Z,475
2018-08-03T06:22:26.853Z,620
2018-08-03T06:23:26.585Z,625
2018-08-03T06:24:26.863Z,655
2018-08-03T06:25:26.594Z,770
2018-08-03T06:26:26.598Z,715
2018-08-03T06:27:26.598Z,805
2018-08-03T06:28:26.994Z,795
2018-08-03T06:29:26.636Z,815
2018-08-03T06:30:26.368Z,815
2018-08-03T06:31:26.620Z,805
2018-08-03T06:32:26.935Z,770
2018-08-03T06:33:26.636Z,540
2018-08-03T06:34:26.906Z,695
2018-08-03T06:35:26.393Z,785
2018-08-03T06:36:26.660Z,890
2018-08-03T06:37:26.919Z,890
2018-08-03T06:38:26.836Z,850
2018-08-03T06:39:26.678Z,845
2018-08-03T06:40:26.440Z,915
2018-08-03T06:41:26.941Z,930
2018-08-03T06:42:26.977Z,935
2018-08-03T06:43:26.710Z,950
2018-08-03T06:44:26.717Z,970
2018-08-03T06:45:26.730Z,1000
2018-08-03T06:46:26.483Z,1020
2018-08-03T06:47:26.744Z,1045
2018-08-03T06:48:27.018Z,1060
2018-08-03T06:49:26.782Z,1055
2018-08-03T06:50:26.774Z,1055
2018-08-03T06:51:26.788Z,1060
2018-08-03T06:52:26.795Z,1060
2018-08-03T06:53:27.052Z,1065
2018-08-03T06:54:27.077Z,1075
2018-08-03T06:55:27.079Z,1070
2018-08-03T06:56:26.837Z,1100
2018-08-03T06:57:27.252Z,1140
2018-08-03T06:58:26.879Z,1165
2018-08-03T06:59:27.010Z,1180
2018-08-03T07:00:27.027Z,1195
2018-08-03T07:01:27.132Z,1210
2018-08-03T07:02:39.893Z,1210
2018-08-03T07:03:46.352Z,1145
2018-08-03T07:04:27.327Z,1135
2018-08-03T07:05:27.190Z,1070
2018-08-03T07:06:26.938Z,1045
2018-08-03T07:07:26.945Z,1075
2018-08-03T07:08:27.033Z,945
2018-08-03T07:09:26.718Z,1075
2018-08-03T07:10:26.980Z,1125
2018-08-03T07:11:27.244Z,1140
2018-08-03T07:12:27.247Z,1130
2018-08-03T07:13:27.267Z,1135
2018-08-03T07:14:27.041Z,1130
2018-08-03T07:15:27.285Z,1095
2018-08-03T07:16:26.792Z,1120
2018-08-03T07:17:27.310Z,1115
2018-08-03T07:18:27.333Z,1145
2018-08-03T07:19:27.073Z,1115
2018-08-03T07:20:28.072Z,1125
2018-08-03T07:21:27.351Z,980
2018-08-03T07:22:27.361Z,540
2018-08-03T07:23:27.120Z,685
2018-08-03T07:24:27.386Z,825
2018-08-03T07:25:27.146Z,1110
2018-08-03T07:26:27.448Z,1170
2018-08-03T07:27:27.173Z,1200
2018-08-03T07:28:27.430Z,1220
2018-08-03T07:29:27.194Z,1240
2018-08-03T07:30:27.203Z,1270
2018-08-03T07:31:27.247Z,1280
2018-08-03T07:32:27.224Z,1285
2018-08-03T07:33:26.735Z,1265
2018-08-03T07:34:26.995Z,1255
2018-08-03T07:35:27.510Z,1260
2018-08-03T07:36:27.021Z,1265
2018-08-03T07:37:27.286Z,1290
2018-08-03T07:38:27.292Z,1315
2018-08-03T07:39:27.582Z,1315
2018-08-03T07:40:27.314Z,1300
2018-08-03T07:41:27.583Z,1300
2018-08-03T07:42:27.589Z,1295
2018-08-03T07:43:27.695Z,1285
2018-08-03T07:44:27.588Z,1300
2018-08-03T07:45:27.628Z,1320
2018-08-03T07:46:27.387Z,1330
2018-08-03T07:47:27.402Z,1325
2018-08-03T07:48:27.659Z,1340
2018-08-03T07:49:27.419Z,1360
2018-08-03T07:50:27.687Z,1370
2018-08-03T07:51:27.455Z,1385
2018-08-03T07:52:27.561Z,1385
2018-08-03T07:53:27.718Z,1395
2018-08-03T07:54:27.484Z,1395
2018-08-03T07:55:27.742Z,1400
2018-08-03T07:56:27.503Z,1400
2018-08-03T07:57:27.760Z,1415
2018-08-03T07:58:27.523Z,1435
2018-08-03T07:59:27.541Z,1460
2018-08-03T08:00:27.797Z,1480
2018-08-03T08:01:27.556Z,1500
2018-08-03T08:02:27.820Z,1520
2018-08-03T08:03:28.164Z,1535
2018-08-03T08:04:27.845Z,1540
2018-08-03T08:05:27.604Z,1555
2018-08-03T08:06:27.814Z,1575
2018-08-03T08:07:27.629Z,1585
2018-08-03T08:08:27.921Z,1585
2018-08-03T08:09:27.157Z,1575
2018-08-03T08:10:27.915Z,1560
2018-08-03T08:11:27.682Z,1555
2018-08-03T08:12:27.945Z,1540
2018-08-03T08:13:27.699Z,1540
2018-08-03T08:14:27.721Z,1555
2018-08-03T08:15:28.064Z,1560
2018-08-03T08:16:27.740Z,1565
2018-08-03T08:17:28.004Z,1555
2018-08-03T08:18:28.017Z,1545
2018-08-03T08:19:28.034Z,1535
2018-08-03T08:20:28.040Z,1535
2018-08-03T08:21:27.798Z,1535
2018-08-03T08:22:28.067Z,1545
2018-08-03T08:23:28.078Z,1540
2018-08-03T08:24:27.841Z,1540
2018-08-03T08:25:27.595Z,1545
2018-08-03T08:26:27.608Z,1550
2018-08-03T08:27:28.121Z,1575
2018-08-03T08:28:28.140Z,1585
2018-08-03T08:29:28.153Z,1590
2018-08-03T08:30:28.163Z,1600
2018-08-03T08:31:28.074Z,1615
2018-08-03T08:32:28.180Z,1640
2018-08-03T08:33:28.199Z,1660
2018-08-03T08:34:27.959Z,1675
2018-08-03T08:35:28.217Z,1685
2018-08-03T08:36:28.227Z,1700
2018-08-03T08:37:27.994Z,1740
2018-08-03T08:38:28.261Z,1730
2018-08-03T08:39:28.014Z,1750
2018-08-03T08:40:28.028Z,1740
2018-08-03T08:41:28.291Z,1715
2018-08-03T08:42:28.051Z,1700
2018-08-03T08:43:28.250Z,1715
2018-08-03T08:44:28.080Z,1725
2018-08-03T08:45:28.094Z,1750
2018-08-03T08:46:27.853Z,1745
2018-08-03T08:47:28.380Z,1740
2018-08-03T08:48:27.871Z,1650
2018-08-03T08:49:28.143Z,995
2018-08-03T08:50:27.897Z,390
2018-08-03T08:51:28.159Z,335
2018-08-03T08:52:28.176Z,335
2018-08-03T08:53:28.082Z,330
2018-08-03T08:54:28.442Z,330
2018-08-03T08:55:28.468Z,330
2018-08-03T08:56:28.221Z,325
2018-08-03T08:57:28.223Z,325
2018-08-03T08:58:28.489Z,325
2018-08-03T08:59:28.305Z,320
2018-08-03T09:00:28.253Z,320
2018-08-03T09:01:28.273Z,320
2018-08-03T09:02:28.027Z,320
2018-08-03T09:03:28.279Z,315
2018-08-03T09:04:28.790Z,315
2018-08-03T09:05:28.048Z,315
2018-08-03T09:06:28.306Z,315
2018-08-03T09:07:28.978Z,310
2018-08-03T09:08:28.575Z,310
2018-08-03T09:09:28.333Z,305
2018-08-03T09:10:28.602Z,305
2018-08-03T09:11:28.349Z,305
2018-08-03T09:12:28.358Z,300
2018-08-03T09:13:28.108Z,300
2018-08-03T09:14:28.114Z,300
2018-08-03T09:15:28.623Z,300
2018-08-03T09:16:28.384Z,295
2018-08-03T09:17:28.385Z,295
2018-08-03T09:18:29.036Z,295
2018-08-03T09:19:28.149Z,295
2018-08-03T09:20:28.663Z,295
2018-08-03T09:21:28.410Z,290
2018-08-03T09:22:28.676Z,290
2018-08-03T09:23:28.420Z,290
2018-08-03T09:24:28.535Z,290
2018-08-03T09:25:28.684Z,285
2018-08-03T09:26:28.189Z,285
2018-08-03T09:27:28.703Z,285
2018-08-03T09:28:28.748Z,280
2018-08-03T09:29:28.471Z,280
2018-08-03T09:30:28.217Z,280
2018-08-03T09:31:28.723Z,280
2018-08-03T09:32:28.730Z,280
2018-08-03T09:33:28.738Z,275
2018-08-03T09:34:28.733Z,275
2018-08-03T09:35:28.745Z,275
2018-08-03T09:36:28.839Z,275
2018-08-03T09:37:28.755Z,275
2018-08-03T09:38:28.761Z,270
2018-08-03T09:39:28.758Z,270
2018-08-03T09:40:28.013Z,270
2018-08-03T09:41:28.776Z,270
2018-08-03T09:42:28.524Z,270
2018-08-03T09:43:28.782Z,265
2018-08-03T09:44:28.535Z,265
2018-08-03T09:45:28.795Z,265
2018-08-03T09:46:28.553Z,265
2018-08-03T09:47:28.556Z,265
2018-08-03T09:48:28.808Z,265
2018-08-03T09:49:28.570Z,265
2018-08-03T09:50:28.312Z,265
2018-08-03T09:51:28.839Z,260
2018-08-03T09:52:28.826Z,260
2018-08-03T09:53:28.584Z,260
2018-08-03T09:54:28.717Z,260
2018-08-03T09:55:28.876Z,260
2018-08-03T09:56:28.597Z,260
2018-08-03T09:57:28.604Z,260
2018-08-03T09:58:28.857Z,260
2018-08-03T09:59:28.865Z,260
2018-08-03T10:00:28.613Z,260
2018-08-03T10:01:28.869Z,255
2018-08-03T10:02:28.884Z,255
2018-08-03T10:03:28.884Z,255
2018-08-03T10:04:28.633Z,255
2018-08-03T10:05:28.896Z,260
2018-08-03T10:06:28.900Z,255
2018-08-03T10:07:29.337Z,255
2018-08-03T10:08:28.919Z,255
2018-08-03T10:09:28.912Z,250
2018-08-03T10:10:28.415Z,250
2018-08-03T10:11:28.675Z,250
2018-08-03T10:12:28.423Z,250
2018-08-03T10:13:28.681Z,250
2018-08-03T10:14:28.683Z,245
2018-08-03T10:15:28.540Z,245
2018-08-03T10:16:28.947Z,245
2018-08-03T10:17:28.955Z,245
2018-08-03T10:18:28.953Z,240
2018-08-03T10:19:28.469Z,240
2018-08-03T10:20:28.462Z,240
2018-08-03T10:21:28.716Z,240
2018-08-03T10:22:29.182Z,240
2018-08-03T10:23:28.478Z,240
2018-08-03T10:24:28.983Z,240
2018-08-03T10:25:28.996Z,240
2018-08-03T10:26:28.749Z,235
2018-08-03T10:27:28.751Z,235
2018-08-03T10:28:28.757Z,235
2018-08-03T10:29:28.509Z,235
2018-08-03T10:30:29.018Z,235
2018-08-03T10:31:29.021Z,230
2018-08-03T10:32:29.037Z,230
2018-08-03T10:33:28.782Z,230
2018-08-03T10:34:28.801Z,225
2018-08-03T10:35:29.045Z,225
2018-08-03T10:36:28.795Z,225
2018-08-03T10:37:29.048Z,225
2018-08-03T10:38:29.057Z,225
2018-08-03T10:39:28.815Z,225
2018-08-03T10:40:29.066Z,225
2018-08-03T10:41:29.076Z,225
2018-08-03T10:42:28.572Z,220
2018-08-03T10:43:29.086Z,220
2018-08-03T10:44:28.842Z,220
2018-08-03T10:45:28.839Z,220
2018-08-03T10:46:29.096Z,220
2018-08-03T10:47:28.850Z,220
2018-08-03T10:48:28.901Z,215
2018-08-03T10:49:28.861Z,215
2018-08-03T10:50:28.875Z,215
2018-08-03T10:51:29.427Z,215
2018-08-03T10:52:28.877Z,215
2018-08-03T10:53:28.879Z,215
2018-08-03T10:54:28.901Z,210
2018-08-03T10:55:28.900Z,210
2018-08-03T10:56:28.903Z,210
2018-08-03T10:57:28.904Z,210
2018-08-03T10:58:29.188Z,210
2018-08-03T10:59:28.670Z,210
2018-08-03T11:00:29.213Z,210
2018-08-03T11:01:29.809Z,210
2018-08-03T11:02:28.933Z,210
2018-08-03T11:03:28.945Z,230
2018-08-03T11:04:29.251Z,230
2018-08-03T11:05:29.200Z,230
2018-08-03T11:06:29.202Z,230
2018-08-03T11:07:29.201Z,225
2018-08-03T11:08:28.965Z,225
2018-08-03T11:09:28.968Z,225
2018-08-03T11:10:28.975Z,225
2018-08-03T11:11:28.975Z,225
2018-08-03T11:12:28.984Z,225
2018-08-03T11:13:29.300Z,230
2018-08-03T11:14:28.997Z,225
2018-08-03T11:15:28.995Z,225
2018-08-03T11:16:29.014Z,220
2018-08-03T11:17:29.011Z,225
2018-08-03T11:18:29.012Z,220
2018-08-03T11:19:28.773Z,220
2018-08-03T11:20:29.269Z,220
2018-08-03T11:21:29.024Z,220
2018-08-03T11:22:29.040Z,220
2018-08-03T11:23:29.289Z,220
2018-08-03T11:24:29.766Z,220
2018-08-03T11:25:28.802Z,220
2018-08-03T11:26:29.304Z,220
2018-08-03T11:27:29.310Z,220
2018-08-03T11:28:28.811Z,220
2018-08-03T11:29:29.074Z,220
2018-08-03T11:30:29.344Z,220
2018-08-03T11:31:29.341Z,215
2018-08-03T11:32:29.341Z,215
2018-08-03T11:33:29.092Z,215
2018-08-03T11:34:29.105Z,215
2018-08-03T11:35:29.365Z,215
2018-08-03T11:36:29.370Z,215
2018-08-03T11:37:29.110Z,215
2018-08-03T11:38:29.117Z,215
2018-08-03T11:39:28.870Z,215
2018-08-03T11:40:29.128Z,215
2018-08-03T11:41:29.394Z,215
2018-08-03T11:42:29.391Z,215
2018-08-03T11:43:28.894Z,215
2018-08-03T11:44:29.153Z,215
2018-08-03T11:45:29.404Z,215
2018-08-03T11:46:29.411Z,215
2018-08-03T11:47:29.164Z,215
2018-08-03T11:48:29.830Z,210
2018-08-03T11:49:28.923Z,210
2018-08-03T11:50:29.433Z,210
2018-08-03T11:51:29.452Z,210
2018-08-03T11:52:29.442Z,210
2018-08-03T11:53:29.459Z,210
2018-08-03T11:54:29.454Z,210
2018-08-03T11:55:29.462Z,210
2018-08-03T11:56:29.226Z,210
2018-08-03T11:57:29.217Z,210
2018-08-03T11:58:29.472Z,210
2018-08-03T11:59:29.480Z,205
2018-08-03T12:00:29.232Z,210
2018-08-03T12:01:29.499Z,205
2018-08-03T12:02:28.994Z,205
2018-08-03T12:03:29.253Z,205
2018-08-03T12:04:29.505Z,205
2018-08-03T12:05:29.268Z,205
2018-08-03T12:06:29.849Z,205
2018-08-03T12:07:29.528Z,205
2018-08-03T12:08:29.536Z,205
2018-08-03T12:09:28.780Z,205
2018-08-03T12:10:29.545Z,205
2018-08-03T12:11:29.042Z,205
2018-08-03T12:12:29.585Z,205
2018-08-03T12:13:29.553Z,205
2018-08-03T12:14:29.564Z,205
2018-08-03T12:15:29.323Z,205
2018-08-03T12:16:29.573Z,205
2018-08-03T12:17:29.585Z,205
2018-08-03T12:18:29.583Z,205
2018-08-03T12:19:29.336Z,205
2018-08-03T12:20:29.594Z,205
2018-08-03T12:21:29.599Z,200
2018-08-03T12:22:29.604Z,200
2018-08-03T12:23:29.783Z,200
2018-08-03T12:24:29.375Z,200
2018-08-03T12:25:29.625Z,200
2018-08-03T12:26:29.670Z,200
2018-08-03T12:27:29.385Z,200
2018-08-03T12:28:29.136Z,200
2018-08-03T12:29:29.645Z,200
2018-08-03T12:30:29.651Z,200
2018-08-03T12:31:29.622Z,200
2018-08-03T12:32:29.658Z,200
2018-08-03T12:33:29.664Z,200
2018-08-03T12:34:29.674Z,200
2018-08-03T12:35:29.679Z,200
2018-08-03T12:36:29.434Z,205
2018-08-03T12:37:29.456Z,200
2018-08-03T12:38:29.694Z,200
2018-08-03T12:39:29.197Z,195
2018-08-03T12:40:29.208Z,195
2018-08-03T12:41:29.463Z,195
2018-08-03T12:42:29.213Z,175
2018-08-03T12:43:29.959Z,175
2018-08-03T12:44:29.222Z,175
2018-08-03T12:45:38.774Z,175
2018-08-03T12:46:29.738Z,175
2018-08-03T12:47:29.492Z,175
2018-08-03T12:48:29.761Z,175
2018-08-03T12:49:29.254Z,175
2018-08-03T12:50:29.801Z,175
2018-08-03T12:51:29.842Z,175
2018-08-03T12:52:29.351Z,170
2018-08-03T12:53:29.522Z,170
2018-08-03T12:54:29.277Z,170
2018-08-03T12:55:29.799Z,170
2018-08-03T12:56:29.852Z,170
2018-08-03T12:57:29.798Z,170
2018-08-03T12:58:29.815Z,170
2018-08-03T12:59:29.926Z,170
2018-08-03T13:00:29.563Z,170
2018-08-03T13:01:29.998Z,170
2018-08-03T13:02:29.664Z,170
2018-08-03T13:03:29.835Z,170
2018-08-03T13:04:29.432Z,170
2018-08-03T13:05:29.847Z,170
2018-08-03T13:06:29.598Z,165
2018-08-03T13:07:29.853Z,165
2018-08-03T13:08:31.493Z,165
2018-08-03T13:09:29.884Z,165
2018-08-03T13:10:29.878Z,165
2018-08-03T13:11:29.876Z,165
2018-08-03T13:12:29.385Z,165
2018-08-03T13:13:29.980Z,165
2018-08-03T13:14:29.901Z,165
2018-08-03T13:15:29.148Z,170
2018-08-03T13:16:29.656Z,170
2018-08-03T13:17:29.662Z,165
2018-08-03T13:18:29.918Z,165
2018-08-03T13:19:29.419Z,165
2018-08-03T13:20:29.928Z,165
2018-08-03T13:21:30.123Z,165
2018-08-03T13:22:29.938Z,165
2018-08-03T13:23:29.945Z,165
2018-08-03T13:24:29.457Z,165
2018-08-03T13:25:29.454Z,165
2018-08-03T13:26:29.707Z,165
2018-08-03T13:27:29.913Z,165
2018-08-03T13:28:29.971Z,165
2018-08-03T13:29:30.350Z,165
2018-08-03T13:30:29.983Z,165
2018-08-03T13:31:29.742Z,165
2018-08-03T13:32:29.998Z,165
2018-08-03T13:33:30.001Z,165
2018-08-03T13:34:29.757Z,165
2018-08-03T13:35:29.770Z,165
2018-08-03T13:36:30.522Z,165
2018-08-03T13:37:30.025Z,165
2018-08-03T13:38:29.533Z,165
2018-08-03T13:39:30.039Z,165
2018-08-03T13:40:29.789Z,165
2018-08-03T13:41:30.054Z,165
2018-08-03T13:42:30.064Z,165
2018-08-03T13:43:30.061Z,165
2018-08-03T13:44:29.856Z,165
2018-08-03T13:45:29.819Z,165
2018-08-03T13:46:29.827Z,165
2018-08-03T13:47:30.085Z,165
2018-08-03T13:48:29.843Z,165
2018-08-03T13:49:29.591Z,165
2018-08-03T13:50:29.667Z,165
2018-08-03T13:51:30.104Z,165
2018-08-03T13:52:29.865Z,165
2018-08-03T13:53:29.866Z,165
2018-08-03T13:54:29.620Z,165
2018-08-03T13:55:29.885Z,165
2018-08-03T13:56:29.886Z,165
2018-08-03T13:57:29.896Z,165
2018-08-03T13:58:29.893Z,165
2018-08-03T13:59:29.900Z,165